sensor_id;sensor_type;location;lat;lon;timestamp;P1;durP1;ratioP1;P2;durP2;ratioP2
75730;SDS011;64350;47.450;19.124;2022-10-30T00:00:21;73.70;;;32.17;;
75730;SDS011;64350;47.450;19.124;2022-10-30T00:02:47;64.13;;;30.83;;
75730;SDS011;64350;47.450;19.124;2022-10-30T00:05:13;69.18;;;31.98;;
75730;SDS011;64350;47.450;19.124;2022-10-30T00:07:39;71.80;;;32.08;;
75730;SDS011;64350;47.450;19.124;2022-10-30T00:10:05;67.47;;;31.47;;
75730;SDS011;64350;47.450;19.124;2022-10-30T00:12:30;77.00;;;31.75;;
75730;SDS011;64350;47.450;19.124;2022-10-30T00:14:56;69.73;;;31.07;;
75730;SDS011;64350;47.450;19.124;2022-10-30T00:17:21;67.20;;;32.40;;
75730;SDS011;64350;47.450;19.124;2022-10-30T00:19:47;75.07;;;32.33;;
75730;SDS011;64350;47.450;19.124;2022-10-30T00:22:12;75.30;;;31.87;;
75730;SDS011;64350;47.450;19.124;2022-10-30T00:24:37;73.03;;;33.47;;
75730;SDS011;64350;47.450;19.124;2022-10-30T00:27:03;74.40;;;33.03;;
75730;SDS011;64350;47.450;19.124;2022-10-30T00:29:28;72.20;;;32.17;;
75730;SDS011;64350;47.450;19.124;2022-10-30T00:31:53;73.10;;;32.60;;
75730;SDS011;64350;47.450;19.124;2022-10-30T00:34:19;75.70;;;33.23;;
75730;SDS011;64350;47.450;19.124;2022-10-30T00:36:44;71.63;;;32.60;;
75730;SDS011;64350;47.450;19.124;2022-10-30T00:39:10;66.80;;;31.20;;
75730;SDS011;64350;47.450;19.124;2022-10-30T00:41:35;70.67;;;31.37;;
75730;SDS011;64350;47.450;19.124;2022-10-30T00:44:30;68.03;;;30.15;;
75730;SDS011;64350;47.450;19.124;2022-10-30T00:47:03;66.87;;;31.05;;
75730;SDS011;64350;47.450;19.124;2022-10-30T00:49:31;61.80;;;30.35;;
75730;SDS011;64350;47.450;19.124;2022-10-30T00:51:58;61.95;;;30.85;;
75730;SDS011;64350;47.450;19.124;2022-10-30T00:54:26;63.83;;;31.20;;
75730;SDS011;64350;47.450;19.124;2022-10-30T00:56:51;67.57;;;28.98;;
75730;SDS011;64350;47.450;19.124;2022-10-30T00:59:20;68.83;;;30.30;;
75730;SDS011;64350;47.450;19.124;2022-10-30T01:01:48;66.70;;;30.83;;
75730;SDS011;64350;47.450;19.124;2022-10-30T01:04:14;66.28;;;30.12;;
75730;SDS011;64350;47.450;19.124;2022-10-30T01:06:41;66.05;;;29.87;;
75730;SDS011;64350;47.450;19.124;2022-10-30T01:09:07;65.30;;;30.00;;
75730;SDS011;64350;47.450;19.124;2022-10-30T01:11:32;65.73;;;29.53;;
75730;SDS011;64350;47.450;19.124;2022-10-30T01:13:59;63.37;;;29.37;;
75730;SDS011;64350;47.450;19.124;2022-10-30T01:24:10;66.00;;;29.23;;
75730;SDS011;64350;47.450;19.124;2022-10-30T01:37:24;56.95;;;26.35;;
75730;SDS011;64350;47.450;19.124;2022-10-30T01:39:50;52.90;;;26.00;;
75730;SDS011;64350;47.450;19.124;2022-10-30T01:42:41;58.67;;;28.48;;
75730;SDS011;64350;47.450;19.124;2022-10-30T01:45:07;58.70;;;26.63;;
75730;SDS011;64350;47.450;19.124;2022-10-30T01:57:46;57.53;;;27.23;;
75730;SDS011;64350;47.450;19.124;2022-10-30T02:00:16;55.67;;;26.90;;
75730;SDS011;64350;47.450;19.124;2022-10-30T02:02:42;61.80;;;27.45;;
75730;SDS011;64350;47.450;19.124;2022-10-30T02:05:09;59.13;;;28.70;;
75730;SDS011;64350;47.450;19.124;2022-10-30T02:07:37;59.67;;;27.73;;
75730;SDS011;64350;47.450;19.124;2022-10-30T02:10:02;64.87;;;28.25;;
75730;SDS011;64350;47.450;19.124;2022-10-30T02:12:28;63.40;;;29.33;;
75730;SDS011;64350;47.450;19.124;2022-10-30T02:14:55;64.72;;;28.67;;
75730;SDS011;64350;47.450;19.124;2022-10-30T02:17:23;61.58;;;28.00;;
75730;SDS011;64350;47.450;19.124;2022-10-30T02:19:49;62.17;;;28.23;;
75730;SDS011;64350;47.450;19.124;2022-10-30T02:22:15;65.85;;;27.77;;
75730;SDS011;64350;47.450;19.124;2022-10-30T02:24:41;66.53;;;27.90;;
75730;SDS011;64350;47.450;19.124;2022-10-30T02:27:07;68.78;;;29.67;;
75730;SDS011;64350;47.450;19.124;2022-10-30T02:29:33;71.27;;;28.67;;
75730;SDS011;64350;47.450;19.124;2022-10-30T02:31:58;69.70;;;29.57;;
75730;SDS011;64350;47.450;19.124;2022-10-30T02:34:23;66.93;;;29.33;;
75730;SDS011;64350;47.450;19.124;2022-10-30T02:36:49;69.13;;;29.83;;
75730;SDS011;64350;47.450;19.124;2022-10-30T02:39:14;66.13;;;27.97;;
75730;SDS011;64350;47.450;19.124;2022-10-30T02:41:40;61.27;;;26.93;;
75730;SDS011;64350;47.450;19.124;2022-10-30T02:44:05;53.70;;;24.90;;
75730;SDS011;64350;47.450;19.124;2022-10-30T02:46:31;57.77;;;26.53;;
75730;SDS011;64350;47.450;19.124;2022-10-30T02:48:56;55.92;;;26.08;;
75730;SDS011;64350;47.450;19.124;2022-10-30T02:51:22;53.03;;;24.87;;
75730;SDS011;64350;47.450;19.124;2022-10-30T02:53:47;55.67;;;25.30;;
75730;SDS011;64350;47.450;19.124;2022-10-30T02:56:13;49.37;;;23.03;;
75730;SDS011;64350;47.450;19.124;2022-10-30T02:58:39;51.10;;;24.42;;
75730;SDS011;64350;47.450;19.124;2022-10-30T03:01:06;51.65;;;24.45;;
75730;SDS011;64350;47.450;19.124;2022-10-30T03:03:38;46.83;;;22.83;;
75730;SDS011;64350;47.450;19.124;2022-10-30T03:06:05;51.42;;;23.08;;
75730;SDS011;64350;47.450;19.124;2022-10-30T03:08:32;47.05;;;22.73;;
75730;SDS011;64350;47.450;19.124;2022-10-30T03:13:33;48.20;;;23.42;;
75730;SDS011;64350;47.450;19.124;2022-10-30T03:16:02;51.95;;;24.15;;
75730;SDS011;64350;47.450;19.124;2022-10-30T03:18:29;44.67;;;22.35;;
75730;SDS011;64350;47.450;19.124;2022-10-30T03:20:58;47.43;;;22.73;;
75730;SDS011;64350;47.450;19.124;2022-10-30T03:23:25;46.72;;;22.25;;
75730;SDS011;64350;47.450;19.124;2022-10-30T03:25:52;45.85;;;22.67;;
75730;SDS011;64350;47.450;19.124;2022-10-30T03:28:19;48.53;;;23.20;;
75730;SDS011;64350;47.450;19.124;2022-10-30T03:30:48;49.83;;;23.67;;
75730;SDS011;64350;47.450;19.124;2022-10-30T03:33:14;50.17;;;22.70;;
75730;SDS011;64350;47.450;19.124;2022-10-30T03:35:41;45.95;;;22.48;;
75730;SDS011;64350;47.450;19.124;2022-10-30T03:38:08;47.38;;;24.08;;
75730;SDS011;64350;47.450;19.124;2022-10-30T03:40:34;43.63;;;22.33;;
75730;SDS011;64350;47.450;19.124;2022-10-30T03:42:59;47.40;;;22.83;;
75730;SDS011;64350;47.450;19.124;2022-10-30T03:45:24;43.30;;;22.60;;
75730;SDS011;64350;47.450;19.124;2022-10-30T03:47:50;41.33;;;20.60;;
75730;SDS011;64350;47.450;19.124;2022-10-30T03:50:15;40.33;;;20.80;;
75730;SDS011;64350;47.450;19.124;2022-10-30T03:52:41;36.63;;;20.20;;
75730;SDS011;64350;47.450;19.124;2022-10-30T03:55:06;37.67;;;20.03;;
75730;SDS011;64350;47.450;19.124;2022-10-30T03:57:35;34.97;;;19.08;;
75730;SDS011;64350;47.450;19.124;2022-10-30T04:00:01;33.53;;;18.27;;
75730;SDS011;64350;47.450;19.124;2022-10-30T04:02:26;33.03;;;17.60;;
75730;SDS011;64350;47.450;19.124;2022-10-30T04:04:51;33.70;;;19.17;;
75730;SDS011;64350;47.450;19.124;2022-10-30T04:07:17;32.37;;;18.13;;
75730;SDS011;64350;47.450;19.124;2022-10-30T04:09:42;36.13;;;18.10;;
75730;SDS011;64350;47.450;19.124;2022-10-30T04:12:08;31.07;;;17.50;;
75730;SDS011;64350;47.450;19.124;2022-10-30T04:14:33;33.90;;;17.57;;
75730;SDS011;64350;47.450;19.124;2022-10-30T04:16:58;33.37;;;18.53;;
75730;SDS011;64350;47.450;19.124;2022-10-30T04:19:24;33.90;;;17.17;;
75730;SDS011;64350;47.450;19.124;2022-10-30T04:21:49;32.60;;;18.00;;
75730;SDS011;64350;47.450;19.124;2022-10-30T04:24:15;34.95;;;17.55;;
75730;SDS011;64350;47.450;19.124;2022-10-30T04:26:42;35.83;;;18.73;;
75730;SDS011;64350;47.450;19.124;2022-10-30T04:29:08;33.93;;;18.27;;
75730;SDS011;64350;47.450;19.124;2022-10-30T04:31:33;34.07;;;19.30;;
75730;SDS011;64350;47.450;19.124;2022-10-30T04:33:59;34.25;;;18.15;;
75730;SDS011;64350;47.450;19.124;2022-10-30T04:36:24;36.83;;;18.73;;
75730;SDS011;64350;47.450;19.124;2022-10-30T04:38:56;34.75;;;18.70;;
75730;SDS011;64350;47.450;19.124;2022-10-30T04:41:22;33.80;;;18.30;;
75730;SDS011;64350;47.450;19.124;2022-10-30T04:43:48;31.97;;;17.00;;
75730;SDS011;64350;47.450;19.124;2022-10-30T04:46:14;34.50;;;18.30;;
75730;SDS011;64350;47.450;19.124;2022-10-30T04:48:41;33.55;;;18.98;;
75730;SDS011;64350;47.450;19.124;2022-10-30T04:51:07;37.10;;;18.02;;
75730;SDS011;64350;47.450;19.124;2022-10-30T04:53:33;37.43;;;18.97;;
75730;SDS011;64350;47.450;19.124;2022-10-30T04:55:58;40.25;;;18.75;;
75730;SDS011;64350;47.450;19.124;2022-10-30T04:58:24;37.63;;;17.43;;
75730;SDS011;64350;47.450;19.124;2022-10-30T05:00:49;38.40;;;18.87;;
75730;SDS011;64350;47.450;19.124;2022-10-30T05:03:19;33.20;;;16.95;;
75730;SDS011;64350;47.450;19.124;2022-10-30T05:05:58;31.70;;;16.00;;
75730;SDS011;64350;47.450;19.124;2022-10-30T05:08:26;38.75;;;17.15;;
75730;SDS011;64350;47.450;19.124;2022-10-30T05:10:52;30.90;;;16.37;;
75730;SDS011;64350;47.450;19.124;2022-10-30T05:13:18;34.13;;;17.37;;
75730;SDS011;64350;47.450;19.124;2022-10-30T05:15:43;37.23;;;16.73;;
75730;SDS011;64350;47.450;19.124;2022-10-30T05:18:09;34.53;;;17.23;;
75730;SDS011;64350;47.450;19.124;2022-10-30T05:20:34;33.50;;;18.57;;
75730;SDS011;64350;47.450;19.124;2022-10-30T05:22:59;36.07;;;17.43;;
75730;SDS011;64350;47.450;19.124;2022-10-30T05:25:25;34.90;;;17.42;;
75730;SDS011;64350;47.450;19.124;2022-10-30T05:27:58;33.90;;;16.87;;
75730;SDS011;64350;47.450;19.124;2022-10-30T05:30:25;35.28;;;17.48;;
75730;SDS011;64350;47.450;19.124;2022-10-30T05:32:55;39.03;;;17.45;;
75730;SDS011;64350;47.450;19.124;2022-10-30T05:35:22;34.42;;;17.33;;
75730;SDS011;64350;47.450;19.124;2022-10-30T05:37:47;33.83;;;17.57;;
75730;SDS011;64350;47.450;19.124;2022-10-30T05:40:12;37.10;;;17.83;;
75730;SDS011;64350;47.450;19.124;2022-10-30T05:42:43;34.37;;;17.70;;
75730;SDS011;64350;47.450;19.124;2022-10-30T05:45:09;31.08;;;15.02;;
75730;SDS011;64350;47.450;19.124;2022-10-30T05:47:34;34.27;;;16.30;;
75730;SDS011;64350;47.450;19.124;2022-10-30T05:50:00;33.30;;;15.25;;
75730;SDS011;64350;47.450;19.124;2022-10-30T05:52:25;34.63;;;15.17;;
75730;SDS011;64350;47.450;19.124;2022-10-30T05:54:53;34.03;;;15.45;;
75730;SDS011;64350;47.450;19.124;2022-10-30T05:57:18;34.93;;;15.47;;
75730;SDS011;64350;47.450;19.124;2022-10-30T05:59:43;29.77;;;15.57;;
75730;SDS011;64350;47.450;19.124;2022-10-30T06:02:09;31.83;;;15.73;;
75730;SDS011;64350;47.450;19.124;2022-10-30T06:04:34;40.43;;;17.77;;
75730;SDS011;64350;47.450;19.124;2022-10-30T06:07:00;34.57;;;16.87;;
75730;SDS011;64350;47.450;19.124;2022-10-30T06:09:25;32.13;;;15.57;;
75730;SDS011;64350;47.450;19.124;2022-10-30T06:11:51;31.63;;;15.53;;
75730;SDS011;64350;47.450;19.124;2022-10-30T06:14:17;33.22;;;16.12;;
75730;SDS011;64350;47.450;19.124;2022-10-30T06:16:42;34.00;;;14.80;;
75730;SDS011;64350;47.450;19.124;2022-10-30T06:19:08;35.37;;;16.80;;
75730;SDS011;64350;47.450;19.124;2022-10-30T06:21:33;33.47;;;16.07;;
75730;SDS011;64350;47.450;19.124;2022-10-30T06:23:58;35.20;;;16.63;;
75730;SDS011;64350;47.450;19.124;2022-10-30T06:26:24;34.27;;;16.07;;
75730;SDS011;64350;47.450;19.124;2022-10-30T06:28:49;35.70;;;17.03;;
75730;SDS011;64350;47.450;19.124;2022-10-30T06:31:15;38.93;;;16.47;;
75730;SDS011;64350;47.450;19.124;2022-10-30T06:33:40;34.60;;;16.37;;
75730;SDS011;64350;47.450;19.124;2022-10-30T06:36:05;35.07;;;17.00;;
75730;SDS011;64350;47.450;19.124;2022-10-30T06:38:31;36.40;;;17.23;;
75730;SDS011;64350;47.450;19.124;2022-10-30T06:40:56;32.73;;;15.03;;
75730;SDS011;64350;47.450;19.124;2022-10-30T06:43:22;37.07;;;17.47;;
75730;SDS011;64350;47.450;19.124;2022-10-30T06:45:47;37.83;;;16.73;;
75730;SDS011;64350;47.450;19.124;2022-10-30T06:48:13;34.63;;;16.73;;
75730;SDS011;64350;47.450;19.124;2022-10-30T06:50:38;33.43;;;16.07;;
75730;SDS011;64350;47.450;19.124;2022-10-30T06:53:04;31.62;;;16.12;;
75730;SDS011;64350;47.450;19.124;2022-10-30T06:55:29;36.60;;;15.70;;
75730;SDS011;64350;47.450;19.124;2022-10-30T06:57:55;35.40;;;16.43;;
75730;SDS011;64350;47.450;19.124;2022-10-30T07:00:21;35.50;;;15.85;;
75730;SDS011;64350;47.450;19.124;2022-10-30T07:02:56;37.57;;;16.87;;
75730;SDS011;64350;47.450;19.124;2022-10-30T07:05:24;33.10;;;14.75;;
75730;SDS011;64350;47.450;19.124;2022-10-30T07:07:50;33.58;;;15.95;;
75730;SDS011;64350;47.450;19.124;2022-10-30T07:10:16;34.60;;;16.30;;
75730;SDS011;64350;47.450;19.124;2022-10-30T07:12:41;37.00;;;16.27;;
75730;SDS011;64350;47.450;19.124;2022-10-30T07:15:07;40.77;;;16.53;;
75730;SDS011;64350;47.450;19.124;2022-10-30T07:17:32;35.42;;;15.55;;
75730;SDS011;64350;47.450;19.124;2022-10-30T07:19:57;39.07;;;16.47;;
75730;SDS011;64350;47.450;19.124;2022-10-30T07:22:23;38.10;;;16.80;;
75730;SDS011;64350;47.450;19.124;2022-10-30T07:24:48;39.93;;;17.17;;
75730;SDS011;64350;47.450;19.124;2022-10-30T07:27:14;35.22;;;15.98;;
75730;SDS011;64350;47.450;19.124;2022-10-30T07:29:39;32.20;;;15.47;;
75730;SDS011;64350;47.450;19.124;2022-10-30T07:32:04;35.33;;;16.37;;
75730;SDS011;64350;47.450;19.124;2022-10-30T07:34:30;31.30;;;16.00;;
75730;SDS011;64350;47.450;19.124;2022-10-30T07:36:55;35.90;;;15.38;;
75730;SDS011;64350;47.450;19.124;2022-10-30T07:39:21;38.20;;;16.90;;
75730;SDS011;64350;47.450;19.124;2022-10-30T07:41:47;35.90;;;15.27;;
75730;SDS011;64350;47.450;19.124;2022-10-30T07:44:14;34.45;;;15.93;;
75730;SDS011;64350;47.450;19.124;2022-10-30T07:46:39;36.27;;;16.83;;
75730;SDS011;64350;47.450;19.124;2022-10-30T07:49:05;36.23;;;16.40;;
75730;SDS011;64350;47.450;19.124;2022-10-30T07:51:30;37.87;;;16.50;;
75730;SDS011;64350;47.450;19.124;2022-10-30T07:53:55;33.65;;;16.00;;
75730;SDS011;64350;47.450;19.124;2022-10-30T07:56:21;32.23;;;15.03;;
75730;SDS011;64350;47.450;19.124;2022-10-30T07:58:46;36.27;;;16.57;;
75730;SDS011;64350;47.450;19.124;2022-10-30T08:01:12;37.67;;;16.23;;
75730;SDS011;64350;47.450;19.124;2022-10-30T08:03:37;41.60;;;15.13;;
75730;SDS011;64350;47.450;19.124;2022-10-30T08:06:02;38.40;;;15.63;;
75730;SDS011;64350;47.450;19.124;2022-10-30T08:08:28;33.33;;;16.17;;
75730;SDS011;64350;47.450;19.124;2022-10-30T08:10:53;35.13;;;15.90;;
75730;SDS011;64350;47.450;19.124;2022-10-30T08:13:19;36.03;;;16.37;;
75730;SDS011;64350;47.450;19.124;2022-10-30T08:15:44;37.20;;;16.13;;
75730;SDS011;64350;47.450;19.124;2022-10-30T08:18:09;36.20;;;16.50;;
75730;SDS011;64350;47.450;19.124;2022-10-30T08:20:35;35.27;;;15.77;;
75730;SDS011;64350;47.450;19.124;2022-10-30T08:23:00;39.10;;;16.60;;
75730;SDS011;64350;47.450;19.124;2022-10-30T08:25:27;37.07;;;16.50;;
75730;SDS011;64350;47.450;19.124;2022-10-30T08:28:01;37.20;;;16.83;;
75730;SDS011;64350;47.450;19.124;2022-10-30T08:30:29;36.83;;;16.65;;
75730;SDS011;64350;47.450;19.124;2022-10-30T08:32:56;38.53;;;16.87;;
75730;SDS011;64350;47.450;19.124;2022-10-30T08:35:23;34.20;;;15.80;;
75730;SDS011;64350;47.450;19.124;2022-10-30T08:37:48;37.00;;;16.27;;
75730;SDS011;64350;47.450;19.124;2022-10-30T08:40:14;37.83;;;17.70;;
75730;SDS011;64350;47.450;19.124;2022-10-30T08:42:39;38.13;;;15.83;;
75730;SDS011;64350;47.450;19.124;2022-10-30T08:45:05;37.80;;;17.07;;
75730;SDS011;64350;47.450;19.124;2022-10-30T08:47:31;35.08;;;15.93;;
75730;SDS011;64350;47.450;19.124;2022-10-30T08:49:56;39.40;;;16.30;;
75730;SDS011;64350;47.450;19.124;2022-10-30T08:52:22;37.03;;;16.87;;
75730;SDS011;64350;47.450;19.124;2022-10-30T08:54:47;37.50;;;17.33;;
75730;SDS011;64350;47.450;19.124;2022-10-30T08:57:12;35.97;;;17.13;;
75730;SDS011;64350;47.450;19.124;2022-10-30T08:59:38;40.70;;;17.10;;
75730;SDS011;64350;47.450;19.124;2022-10-30T09:02:03;39.33;;;17.37;;
75730;SDS011;64350;47.450;19.124;2022-10-30T09:04:28;31.95;;;15.77;;
75730;SDS011;64350;47.450;19.124;2022-10-30T09:06:54;33.80;;;16.17;;
75730;SDS011;64350;47.450;19.124;2022-10-30T09:09:19;42.07;;;17.50;;
75730;SDS011;64350;47.450;19.124;2022-10-30T09:11:46;37.60;;;16.10;;
75730;SDS011;64350;47.450;19.124;2022-10-30T09:14:12;39.67;;;17.40;;
75730;SDS011;64350;47.450;19.124;2022-10-30T09:16:40;37.65;;;17.27;;
75730;SDS011;64350;47.450;19.124;2022-10-30T09:19:06;36.27;;;16.70;;
75730;SDS011;64350;47.450;19.124;2022-10-30T09:21:31;37.77;;;18.83;;
75730;SDS011;64350;47.450;19.124;2022-10-30T09:23:57;41.37;;;19.87;;
75730;SDS011;64350;47.450;19.124;2022-10-30T09:26:22;38.10;;;17.12;;
75730;SDS011;64350;47.450;19.124;2022-10-30T09:28:48;36.97;;;17.00;;
75730;SDS011;64350;47.450;19.124;2022-10-30T09:31:13;37.93;;;17.03;;
75730;SDS011;64350;47.450;19.124;2022-10-30T09:33:38;33.03;;;15.50;;
75730;SDS011;64350;47.450;19.124;2022-10-30T09:36:04;35.93;;;16.73;;
75730;SDS011;64350;47.450;19.124;2022-10-30T09:38:29;39.03;;;17.47;;
75730;SDS011;64350;47.450;19.124;2022-10-30T09:46:33;35.38;;;17.25;;
75730;SDS011;64350;47.450;19.124;2022-10-30T09:56:48;40.12;;;17.65;;
75730;SDS011;64350;47.450;19.124;2022-10-30T10:05:37;36.28;;;17.10;;
75730;SDS011;64350;47.450;19.124;2022-10-30T10:08:05;34.17;;;17.27;;
75730;SDS011;64350;47.450;19.124;2022-10-30T10:13:06;34.80;;;16.58;;
75730;SDS011;64350;47.450;19.124;2022-10-30T10:15:40;33.28;;;16.55;;
75730;SDS011;64350;47.450;19.124;2022-10-30T10:18:13;33.40;;;16.70;;
75730;SDS011;64350;47.450;19.124;2022-10-30T10:20:43;33.73;;;16.60;;
75730;SDS011;64350;47.450;19.124;2022-10-30T10:23:18;32.00;;;15.90;;
75730;SDS011;64350;47.450;19.124;2022-10-30T10:25:53;37.05;;;16.05;;
75730;SDS011;64350;47.450;19.124;2022-10-30T10:33:24;31.67;;;15.87;;
75730;SDS011;64350;47.450;19.124;2022-10-30T10:47:47;36.80;;;18.27;;
75730;SDS011;64350;47.450;19.124;2022-10-30T10:51:05;31.55;;;16.67;;
75730;SDS011;64350;47.450;19.124;2022-10-30T10:53:34;35.95;;;16.40;;
75730;SDS011;64350;47.450;19.124;2022-10-30T10:56:13;34.10;;;16.50;;
75730;SDS011;64350;47.450;19.124;2022-10-30T10:58:49;33.27;;;17.10;;
75730;SDS011;64350;47.450;19.124;2022-10-30T11:01:18;34.42;;;17.33;;
75730;SDS011;64350;47.450;19.124;2022-10-30T11:06:33;35.00;;;18.20;;
75730;SDS011;64350;47.450;19.124;2022-10-30T11:09:15;36.75;;;16.90;;
75730;SDS011;64350;47.450;19.124;2022-10-30T11:11:45;34.75;;;18.00;;
75730;SDS011;64350;47.450;19.124;2022-10-30T11:14:18;38.05;;;18.12;;
75730;SDS011;64350;47.450;19.124;2022-10-30T11:19:32;32.17;;;15.50;;
75730;SDS011;64350;47.450;19.124;2022-10-30T11:21:57;35.70;;;17.17;;
75730;SDS011;64350;47.450;19.124;2022-10-30T11:26:54;35.45;;;17.67;;
75730;SDS011;64350;47.450;19.124;2022-10-30T11:29:27;34.35;;;17.50;;
75730;SDS011;64350;47.450;19.124;2022-10-30T11:32:03;29.40;;;16.57;;
75730;SDS011;64350;47.450;19.124;2022-10-30T11:34:30;35.35;;;17.52;;
75730;SDS011;64350;47.450;19.124;2022-10-30T11:36:59;34.20;;;17.90;;
75730;SDS011;64350;47.450;19.124;2022-10-30T11:39:25;32.10;;;17.80;;
75730;SDS011;64350;47.450;19.124;2022-10-30T11:41:59;33.88;;;16.62;;
75730;SDS011;64350;47.450;19.124;2022-10-30T11:44:40;32.55;;;17.62;;
75730;SDS011;64350;47.450;19.124;2022-10-30T11:47:11;35.85;;;17.45;;
75730;SDS011;64350;47.450;19.124;2022-10-30T11:52:13;32.70;;;17.20;;
75730;SDS011;64350;47.450;19.124;2022-10-30T11:54:40;32.30;;;16.92;;
75730;SDS011;64350;47.450;19.124;2022-10-30T11:57:30;36.75;;;17.67;;
75730;SDS011;64350;47.450;19.124;2022-10-30T11:59:58;35.67;;;18.17;;
75730;SDS011;64350;47.450;19.124;2022-10-30T12:02:25;35.23;;;17.53;;
75730;SDS011;64350;47.450;19.124;2022-10-30T12:05:00;34.95;;;17.62;;
75730;SDS011;64350;47.450;19.124;2022-10-30T12:07:30;35.60;;;18.60;;
75730;SDS011;64350;47.450;19.124;2022-10-30T12:09:56;33.60;;;16.57;;
75730;SDS011;64350;47.450;19.124;2022-10-30T12:12:27;33.08;;;17.45;;
75730;SDS011;64350;47.450;19.124;2022-10-30T12:14:53;34.72;;;18.15;;
75730;SDS011;64350;47.450;19.124;2022-10-30T12:17:19;35.40;;;17.37;;
75730;SDS011;64350;47.450;19.124;2022-10-30T12:19:49;33.07;;;16.93;;
75730;SDS011;64350;47.450;19.124;2022-10-30T12:22:36;33.85;;;18.12;;
75730;SDS011;64350;47.450;19.124;2022-10-30T12:25:03;33.90;;;18.02;;
75730;SDS011;64350;47.450;19.124;2022-10-30T12:27:33;33.38;;;16.85;;
75730;SDS011;64350;47.450;19.124;2022-10-30T12:30:22;34.00;;;16.95;;
75730;SDS011;64350;47.450;19.124;2022-10-30T12:32:55;33.47;;;17.20;;
75730;SDS011;64350;47.450;19.124;2022-10-30T12:35:44;37.88;;;17.70;;
75730;SDS011;64350;47.450;19.124;2022-10-30T12:38:20;34.33;;;16.90;;
75730;SDS011;64350;47.450;19.124;2022-10-30T12:40:55;36.95;;;18.17;;
75730;SDS011;64350;47.450;19.124;2022-10-30T12:43:27;33.80;;;17.92;;
75730;SDS011;64350;47.450;19.124;2022-10-30T12:46:00;36.97;;;17.23;;
75730;SDS011;64350;47.450;19.124;2022-10-30T12:48:37;32.47;;;17.48;;
75730;SDS011;64350;47.450;19.124;2022-10-30T12:56:37;36.85;;;17.80;;
75730;SDS011;64350;47.450;19.124;2022-10-30T13:04:37;38.33;;;19.37;;
75730;SDS011;64350;47.450;19.124;2022-10-30T13:09:43;38.75;;;18.37;;
75730;SDS011;64350;47.450;19.124;2022-10-30T13:12:18;39.20;;;18.93;;
75730;SDS011;64350;47.450;19.124;2022-10-30T13:14:52;34.85;;;18.52;;
75730;SDS011;64350;47.450;19.124;2022-10-30T13:17:20;34.67;;;18.58;;
75730;SDS011;64350;47.450;19.124;2022-10-30T13:19:46;36.40;;;19.52;;
75730;SDS011;64350;47.450;19.124;2022-10-30T13:24:46;38.22;;;18.73;;
75730;SDS011;64350;47.450;19.124;2022-10-30T13:27:20;36.72;;;18.87;;
75730;SDS011;64350;47.450;19.124;2022-10-30T13:29:52;36.47;;;18.52;;
75730;SDS011;64350;47.450;19.124;2022-10-30T13:35:03;42.00;;;21.17;;
75730;SDS011;64350;47.450;19.124;2022-10-30T13:40:50;39.28;;;19.05;;
75730;SDS011;64350;47.450;19.124;2022-10-30T13:49:27;37.35;;;20.73;;
75730;SDS011;64350;47.450;19.124;2022-10-30T13:55:00;39.38;;;19.60;;
75730;SDS011;64350;47.450;19.124;2022-10-30T14:03:21;37.80;;;19.67;;
75730;SDS011;64350;47.450;19.124;2022-10-30T14:11:03;38.30;;;20.62;;
75730;SDS011;64350;47.450;19.124;2022-10-30T14:19:00;35.47;;;20.40;;
75730;SDS011;64350;47.450;19.124;2022-10-30T14:24:21;37.78;;;20.42;;
75730;SDS011;64350;47.450;19.124;2022-10-30T14:26:50;41.35;;;20.80;;
75730;SDS011;64350;47.450;19.124;2022-10-30T14:31:59;38.60;;;20.67;;
75730;SDS011;64350;47.450;19.124;2022-10-30T14:37:09;37.00;;;20.10;;
75730;SDS011;64350;47.450;19.124;2022-10-30T14:39:39;41.10;;;21.02;;
75730;SDS011;64350;47.450;19.124;2022-10-30T14:42:13;34.28;;;19.55;;
75730;SDS011;64350;47.450;19.124;2022-10-30T14:50:56;40.40;;;19.52;;
75730;SDS011;64350;47.450;19.124;2022-10-30T15:01:43;39.95;;;18.90;;
75730;SDS011;64350;47.450;19.124;2022-10-30T15:04:16;46.15;;;22.87;;
75730;SDS011;64350;47.450;19.124;2022-10-30T15:11:58;46.37;;;21.33;;
75730;SDS011;64350;47.450;19.124;2022-10-30T15:14:45;39.50;;;21.45;;
75730;SDS011;64350;47.450;19.124;2022-10-30T15:17:56;43.95;;;22.85;;
75730;SDS011;64350;47.450;19.124;2022-10-30T15:20:04;46.63;;;22.40;;
75730;SDS011;64350;47.450;19.124;2022-10-30T15:22:31;42.25;;;22.10;;
75730;SDS011;64350;47.450;19.124;2022-10-30T15:24:58;41.27;;;20.67;;
75730;SDS011;64350;47.450;19.124;2022-10-30T15:27:25;43.35;;;21.52;;
75730;SDS011;64350;47.450;19.124;2022-10-30T15:29:55;42.05;;;21.55;;
75730;SDS011;64350;47.450;19.124;2022-10-30T15:32:24;39.38;;;22.30;;
75730;SDS011;64350;47.450;19.124;2022-10-30T15:34:53;42.97;;;22.83;;
75730;SDS011;64350;47.450;19.124;2022-10-30T15:37:29;39.87;;;21.70;;
75730;SDS011;64350;47.450;19.124;2022-10-30T15:42:38;43.87;;;22.40;;
75730;SDS011;64350;47.450;19.124;2022-10-30T15:45:04;45.97;;;23.35;;
75730;SDS011;64350;47.450;19.124;2022-10-30T15:47:30;47.13;;;23.20;;
75730;SDS011;64350;47.450;19.124;2022-10-30T15:49:56;44.67;;;24.23;;
75730;SDS011;64350;47.450;19.124;2022-10-30T15:52:23;42.30;;;23.43;;
75730;SDS011;64350;47.450;19.124;2022-10-30T15:55:00;47.72;;;25.20;;
75730;SDS011;64350;47.450;19.124;2022-10-30T15:57:32;46.40;;;22.45;;
75730;SDS011;64350;47.450;19.124;2022-10-30T16:00:03;46.35;;;25.15;;
75730;SDS011;64350;47.450;19.124;2022-10-30T16:02:31;46.03;;;24.25;;
75730;SDS011;64350;47.450;19.124;2022-10-30T16:04:57;50.73;;;25.53;;
75730;SDS011;64350;47.450;19.124;2022-10-30T16:07:26;47.93;;;26.20;;
75730;SDS011;64350;47.450;19.124;2022-10-30T16:09:53;52.00;;;25.63;;
75730;SDS011;64350;47.450;19.124;2022-10-30T16:12:27;51.72;;;25.98;;
75730;SDS011;64350;47.450;19.124;2022-10-30T16:14:54;51.83;;;27.05;;
75730;SDS011;64350;47.450;19.124;2022-10-30T16:17:20;52.60;;;27.60;;
75730;SDS011;64350;47.450;19.124;2022-10-30T16:19:47;53.97;;;28.40;;
75730;SDS011;64350;47.450;19.124;2022-10-30T16:22:17;52.22;;;27.73;;
75730;SDS011;64350;47.450;19.124;2022-10-30T16:24:47;48.85;;;26.92;;
75730;SDS011;64350;47.450;19.124;2022-10-30T16:27:14;52.87;;;28.67;;
75730;SDS011;64350;47.450;19.124;2022-10-30T16:29:42;47.25;;;26.58;;
75730;SDS011;64350;47.450;19.124;2022-10-30T16:32:12;50.20;;;25.48;;
75730;SDS011;64350;47.450;19.124;2022-10-30T16:34:39;53.95;;;28.98;;
75730;SDS011;64350;47.450;19.124;2022-10-30T16:37:08;53.10;;;28.62;;
75730;SDS011;64350;47.450;19.124;2022-10-30T16:39:37;45.67;;;26.23;;
75730;SDS011;64350;47.450;19.124;2022-10-30T16:42:03;50.92;;;25.65;;
75730;SDS011;64350;47.450;19.124;2022-10-30T16:44:29;49.93;;;25.70;;
75730;SDS011;64350;47.450;19.124;2022-10-30T16:47:21;46.05;;;25.77;;
75730;SDS011;64350;47.450;19.124;2022-10-30T16:49:50;41.25;;;23.02;;
75730;SDS011;64350;47.450;19.124;2022-10-30T16:52:17;43.08;;;23.38;;